Time;durP1;ratioP1;P1;durP2;ratioP2;P2;SDS_P1;SDS_P2;PMS_P1;PMS_P2;Temp;Humidity;BMP_temperature;BMP_pressure;BME280_temperature;BME280_humidity;BME280_pressure;Samples;Min_cycle;Max_cycle;Signal;HPM_P1;HPM_P2
2022/04/16 00:00:47;;;;;;;21.90;15.23;;;8.70;99.90;;;;;;5027669;28;20042;-73
2022/04/16 00:03:13;;;;;;;20.08;14.15;;;8.60;99.90;;;;;;4995764;28;20046;-73
2022/04/16 00:05:39;;;;;;;19.77;14.30;;;8.60;99.90;;;;;;4994926;28;20038;-73
2022/04/16 00:08:07;;;;;;;23.58;14.85;;;8.50;99.90;;;;;;5026870;28;20108;-73
2022/04/16 00:10:39;;;;;;;20.88;14.35;;;8.50;99.90;;;;;;5027449;28;20049;-73
2022/04/16 00:13:05;;;;;;;17.85;13.48;;;8.50;99.90;;;;;;4992726;28;20088;-73
2022/04/16 00:15:31;;;;;;;19.17;13.95;;;8.50;99.90;;;;;;4994707;28;20042;-74
2022/04/16 00:17:57;;;;;;;17.98;13.32;;;8.40;99.90;;;;;;5026717;28;20034;-73
2022/04/16 00:20:25;;;;;;;16.35;12.60;;;8.40;99.90;;;;;;5024784;28;20050;-73
2022/04/16 00:22:51;;;;;;;20.00;13.68;;;8.40;99.90;;;;;;5010066;28;20100;-74
2022/04/16 00:25:17;;;;;;;18.23;13.18;;;8.40;99.90;;;;;;5010116;28;20046;-73
2022/04/16 00:27:42;;;;;;;21.00;14.57;;;8.40;99.90;;;;;;4978085;28;20402;-73
2022/04/16 00:30:08;;;;;;;17.90;13.73;;;8.30;99.90;;;;;;5027000;28;20039;-73
2022/04/16 00:32:34;;;;;;;20.75;14.75;;;8.20;99.90;;;;;;5008953;28;20038;-73
2022/04/16 00:35:02;;;;;;;18.80;13.98;;;8.10;99.90;;;;;;5027179;28;20458;-73
2022/04/16 00:37:27;;;;;;;20.27;14.52;;;8.00;99.90;;;;;;4993870;28;20034;-73
2022/04/16 00:39:53;;;;;;;20.10;14.32;;;8.00;99.90;;;;;;5026975;28;20130;-73
2022/04/16 00:42:18;;;;;;;20.13;14.27;;;7.90;99.90;;;;;;5026015;28;20049;-73
2022/04/16 00:44:44;;;;;;;18.20;13.45;;;7.90;99.90;;;;;;5010444;28;20569;-73
2022/04/16 00:47:10;;;;;;;19.50;13.82;;;7.80;99.90;;;;;;5009947;28;20046;-73
2022/04/16 00:49:36;;;;;;;19.30;14.15;;;7.80;99.90;;;;;;4993930;28;20046;-73
2022/04/16 00:52:02;;;;;;;18.00;13.00;;;7.80;99.90;;;;;;5024943;28;20168;-73
2022/04/16 00:54:28;;;;;;;18.60;13.55;;;7.70;99.90;;;;;;4993873;28;20562;-73
2022/04/16 00:56:54;;;;;;;17.05;12.52;;;7.70;99.90;;;;;;4993466;28;20034;-73
2022/04/16 00:59:20;;;;;;;19.13;13.70;;;7.70;99.90;;;;;;4977764;28;20501;-73
2022/04/16 01:01:46;;;;;;;20.42;13.35;;;7.60;99.90;;;;;;4976915;28;20050;-73
2022/04/16 01:04:11;;;;;;;17.40;12.07;;;7.50;99.90;;;;;;4977681;28;20042;-73
2022/04/16 01:06:48;;;;;;;19.42;13.07;;;7.50;99.90;;;;;;5006203;28;20078;-72
2022/04/16 01:09:14;;;;;;;19.15;13.05;;;7.40;99.90;;;;;;4958206;28;20042;-72
2022/04/16 01:11:39;;;;;;;18.67;12.90;;;7.40;99.90;;;;;;5004648;28;20390;-72
2022/04/16 01:14:05;;;;;;;18.83;13.23;;;7.40;99.90;;;;;;4993129;28;20100;-72
2022/04/16 01:16:32;;;;;;;18.00;13.70;;;7.30;99.90;;;;;;5009832;28;20039;-72
2022/04/16 01:18:58;;;;;;;19.02;13.52;;;7.40;99.90;;;;;;5009149;28;20034;-72
2022/04/16 01:21:24;;;;;;;17.30;12.15;;;7.40;99.90;;;;;;4977313;28;20081;-73
2022/04/16 01:23:50;;;;;;;18.60;13.27;;;7.40;99.90;;;;;;4992832;28;20509;-73
2022/04/16 01:26:16;;;;;;;19.50;13.77;;;7.40;99.90;;;;;;4976614;28;20038;-73
2022/04/16 01:28:43;;;;;;;20.70;14.70;;;7.40;99.90;;;;;;4993261;28;20050;-72
2022/04/16 01:31:09;;;;;;;21.45;15.45;;;7.30;99.90;;;;;;4993063;28;20475;-73
2022/04/16 01:33:34;;;;;;;21.75;15.10;;;7.20;99.90;;;;;;4992550;28;20081;-73
2022/04/16 01:36:00;;;;;;;20.50;14.75;;;7.20;99.90;;;;;;5005467;28;20510;-73
2022/04/16 01:38:26;;;;;;;22.00;15.23;;;7.10;99.90;;;;;;5006232;28;20042;-72
2022/04/16 01:40:58;;;;;;;22.42;14.90;;;7.00;99.90;;;;;;4996965;28;20489;-73
2022/04/16 01:43:24;;;;;;;19.33;14.75;;;7.00;99.90;;;;;;5024975;28;20053;-72
2022/04/16 01:45:50;;;;;;;23.45;15.90;;;7.00;99.90;;;;;;5008598;28;20041;-73
2022/04/16 01:48:21;;;;;;;24.88;16.15;;;7.00;99.90;;;;;;4976711;28;20042;-72
2022/04/16 01:50:47;;;;;;;21.25;14.80;;;7.00;99.90;;;;;;4992533;28;20065;-72
2022/04/16 01:53:12;;;;;;;20.10;15.07;;;7.00;99.90;;;;;;4976431;28;20081;-72
2022/04/16 01:55:38;;;;;;;20.98;15.70;;;6.90;99.90;;;;;;5007394;28;20045;-72
2022/04/16 01:58:06;;;;;;;20.42;15.57;;;6.90;99.90;;;;;;4976003;28;20046;-72
2022/04/16 02:00:33;;;;;;;22.60;16.70;;;6.90;99.90;;;;;;5008315;28;20034;-72
2022/04/16 02:03:00;;;;;;;22.35;16.23;;;6.80;99.90;;;;;;4993015;28;20042;-72
2022/04/16 02:05:25;;;;;;;22.85;16.15;;;6.80;99.90;;;;;;4992283;28;20498;-72
2022/04/16 02:07:51;;;;;;;23.60;16.08;;;6.80;99.90;;;;;;5008971;28;20125;-73
2022/04/16 02:10:17;;;;;;;21.20;15.30;;;6.90;99.90;;;;;;4976290;28;20042;-72
2022/04/16 02:12:43;;;;;;;19.90;14.75;;;6.80;99.90;;;;;;5009029;28;20089;-72
2022/04/16 02:15:10;;;;;;;20.38;14.95;;;6.80;99.90;;;;;;4992661;28;20045;-72
2022/04/16 02:17:36;;;;;;;21.75;16.17;;;6.80;99.90;;;;;;5024423;28;20101;-72
2022/04/16 02:20:06;;;;;;;23.40;16.33;;;6.80;99.90;;;;;;4992464;28;20062;-72
2022/04/16 02:22:58;;;;;;;22.35;15.23;;;6.70;99.90;;;;;;4992560;28;20049;-72
2022/04/16 02:25:24;;;;;;;18.83;14.80;;;6.80;99.90;;;;;;4990610;28;20058;-73
2022/04/16 02:27:50;;;;;;;24.55;17.25;;;6.90;99.90;;;;;;5009125;28;20064;-72
2022/04/16 02:30:16;;;;;;;21.65;15.43;;;6.80;99.90;;;;;;4976374;28;20546;-72
2022/04/16 02:32:48;;;;;;;23.95;16.92;;;6.80;99.90;;;;;;4992185;28;20092;-72
2022/04/16 02:35:15;;;;;;;23.60;17.30;;;6.90;99.90;;;;;;5004754;28;20035;-72
2022/04/16 02:37:41;;;;;;;26.95;18.15;;;6.80;99.90;;;;;;5010930;28;20058;-72
2022/04/16 02:40:08;;;;;;;24.30;19.05;;;6.90;99.90;;;;;;5012009;28;20034;-73
2022/04/16 02:42:37;;;;;;;24.60;17.23;;;6.90;99.90;;;;;;4980404;28;20042;-72
2022/04/16 02:47:49;;;;;;;27.17;18.73;;;7.00;99.90;;;;;;4996067;28;20050;-72
2022/04/16 02:50:15;;;;;;;26.55;19.08;;;7.00;99.90;;;;;;5027259;28;20044;-73
2022/04/16 02:52:41;;;;;;;31.67;19.75;;;7.00;99.90;;;;;;5012712;28;20049;-73
2022/04/16 02:55:07;;;;;;;29.08;19.70;;;7.10;99.90;;;;;;4995954;28;20482;-73
2022/04/16 02:57:33;;;;;;;28.65;19.67;;;7.10;99.90;;;;;;4978657;28;20092;-72
2022/04/16 02:59:59;;;;;;;28.45;18.83;;;7.20;99.90;;;;;;4979619;28;20486;-72
2022/04/16 03:02:24;;;;;;;29.50;20.45;;;7.20;99.90;;;;;;4995961;28;20042;-72
2022/04/16 03:04:50;;;;;;;28.08;19.38;;;7.30;99.90;;;;;;5008370;28;20039;-72
2022/04/16 03:07:17;;;;;;;28.48;19.67;;;7.30;99.90;;;;;;4979193;28;20085;-72
2022/04/16 03:09:42;;;;;;;25.50;18.42;;;7.40;99.90;;;;;;4995272;28;20034;-72
2022/04/16 03:12:08;;;;;;;26.50;18.15;;;7.40;99.90;;;;;;4995260;28;20034;-72
2022/04/16 03:17:32;;;;;;;25.55;18.73;;;7.60;99.90;;;;;;4995372;28;20046;-72
2022/04/16 03:19:59;;;;;;;29.17;20.40;;;7.70;99.90;;;;;;5011949;28;20054;-72
2022/04/16 03:22:24;;;;;;;29.52;20.13;;;7.70;99.90;;;;;;4998592;28;20084;-72
2022/04/16 03:24:51;;;;;;;27.55;19.65;;;7.80;99.90;;;;;;4995647;28;20086;-73
2022/04/16 03:27:16;;;;;;;29.98;20.90;;;7.90;99.90;;;;;;4979128;28;20046;-73
2022/04/16 03:29:42;;;;;;;29.33;21.58;;;8.00;99.90;;;;;;5011910;28;20030;-73
2022/04/16 03:32:08;;;;;;;32.53;23.25;;;8.10;99.90;;;;;;4979230;28;20478;-72
2022/04/16 03:34:33;;;;;;;31.85;23.17;;;8.10;99.90;;;;;;4979490;28;20490;-73
2022/04/16 03:36:59;;;;;;;35.88;24.00;;;8.10;99.90;;;;;;4978806;28;20046;-73
2022/04/16 03:39:25;;;;;;;31.40;22.67;;;8.10;99.90;;;;;;4995418;28;20049;-73
2022/04/16 03:41:51;;;;;;;33.58;23.63;;;8.20;99.90;;;;;;5026998;28;20042;-73
2022/04/16 03:44:17;;;;;;;33.58;25.08;;;8.20;99.90;;;;;;5028394;28;20048;-72
2022/04/16 03:46:42;;;;;;;35.10;25.90;;;8.20;99.90;;;;;;5026156;28;20053;-73
2022/04/16 03:49:08;;;;;;;36.25;25.80;;;8.20;99.90;;;;;;4994880;28;20054;-73
2022/04/16 03:51:33;;;;;;;39.92;27.95;;;8.10;99.90;;;;;;5010747;28;20030;-72
2022/04/16 03:59:59;;;;;;;35.85;25.42;;;8.10;99.90;;;;;;5027785;28;20450;-72
2022/04/16 04:02:13;;;;;;;35.72;25.17;;;8.30;99.90;;;;;;4994437;28;20066;-72
2022/04/16 04:04:39;;;;;;;35.72;26.20;;;8.30;99.90;;;;;;4978548;28;20051;-72
2022/04/16 04:07:05;;;;;;;35.35;26.48;;;8.30;99.90;;;;;;5009913;28;20044;-72
2022/04/16 04:09:31;;;;;;;38.60;28.55;;;8.40;99.90;;;;;;5011293;28;20034;-72
2022/04/16 04:11:57;;;;;;;39.70;29.02;;;8.40;99.90;;;;;;4978896;28;20040;-72
2022/04/16 04:14:22;;;;;;;35.60;26.67;;;8.30;99.90;;;;;;5011115;28;20034;-72
2022/04/16 04:16:48;;;;;;;34.65;26.00;;;8.40;99.90;;;;;;5026087;28;20038;-73
2022/04/16 04:19:13;;;;;;;35.13;26.00;;;8.40;99.90;;;;;;5010923;28;20552;-72
2022/04/16 04:21:39;;;;;;;38.30;27.92;;;8.40;99.90;;;;;;5006747;28;20130;-73
2022/04/16 04:24:04;;;;;;;35.67;26.08;;;8.30;99.90;;;;;;4991245;28;20391;-73
2022/04/16 04:26:30;;;;;;;35.72;25.90;;;8.30;99.90;;;;;;5004464;28;20410;-72
2022/04/16 04:28:55;;;;;;;34.17;26.10;;;8.30;99.90;;;;;;5027106;28;20100;-72
2022/04/16 04:31:21;;;;;;;33.55;25.23;;;8.30;99.90;;;;;;5024659;28;20125;-72
2022/04/16 04:33:46;;;;;;;35.70;26.05;;;8.40;99.90;;;;;;4978398;28;20049;-72
2022/04/16 04:36:12;;;;;;;35.03;24.63;;;8.40;99.90;;;;;;4978136;28;20035;-73
2022/04/16 04:38:38;;;;;;;33.58;23.50;;;8.40;99.90;;;;;;5010904;28;20046;-73
2022/04/16 04:41:04;;;;;;;30.17;21.10;;;8.50;99.90;;;;;;5026464;28;20121;-73
2022/04/16 04:43:30;;;;;;;28.80;20.65;;;8.60;99.90;;;;;;5026243;28;20046;-73
2022/04/16 04:45:55;;;;;;;31.60;22.88;;;8.60;99.90;;;;;;4992292;28;20143;-72
2022/04/16 04:48:21;;;;;;;28.55;18.90;;;8.60;99.90;;;;;;5009860;28;20050;-73
2022/04/16 04:50:46;;;;;;;25.95;18.58;;;8.50;99.90;;;;;;5026805;28;20038;-73
2022/04/16 04:53:12;;;;;;;26.30;18.30;;;8.40;99.90;;;;;;5024741;28;20070;-72
2022/04/16 04:55:38;;;;;;;24.45;16.98;;;8.20;99.90;;;;;;4977001;28;20474;-73
2022/04/16 04:58:03;;;;;;;23.38;17.20;;;8.30;99.90;;;;;;4997276;28;20037;-73
2022/04/16 05:00:29;;;;;;;24.85;16.50;;;8.20;99.90;;;;;;4989696;28;20042;-72
2022/04/16 05:02:54;;;;;;;22.90;15.90;;;8.30;99.90;;;;;;4977444;28;20125;-73
2022/04/16 05:05:20;;;;;;;20.13;14.10;;;8.20;99.90;;;;;;4981014;28;20121;-72
2022/04/16 05:07:45;;;;;;;22.70;15.82;;;8.30;99.90;;;;;;4993789;28;20121;-72
2022/04/16 05:10:12;;;;;;;19.63;13.85;;;8.20;99.90;;;;;;4993567;28;20045;-73
2022/04/16 05:12:38;;;;;;;21.90;13.85;;;8.30;99.90;;;;;;5026702;28;20380;-72
2022/04/16 05:15:04;;;;;;;21.45;14.75;;;8.50;99.90;;;;;;4977343;28;20034;-73
2022/04/16 05:17:30;;;;;;;21.48;14.13;;;8.40;99.90;;;;;;5026331;28;20042;-73
2022/04/16 05:19:55;;;;;;;22.20;14.32;;;8.50;99.90;;;;;;5026121;28;20062;-73
2022/04/16 05:22:21;;;;;;;21.15;11.95;;;8.40;99.90;;;;;;4993530;28;20042;-72
2022/04/16 05:24:47;;;;;;;17.88;11.32;;;8.50;99.90;;;;;;4977512;28;20038;-72
2022/04/16 05:27:12;;;;;;;20.02;12.25;;;8.50;99.90;;;;;;4980263;28;20029;-73
2022/04/16 05:30:02;;;;;;;18.40;11.27;;;8.60;99.90;;;;;;4976913;28;20042;-72
2022/04/16 05:32:34;;;;;;;18.77;11.95;;;8.60;99.90;;;;;;4977174;28;20422;-72
2022/04/16 05:35:00;;;;;;;15.85;9.13;;;8.50;99.90;;;;;;4977384;28;20038;-73
2022/04/16 05:37:25;;;;;;;19.60;12.02;;;8.60;99.90;;;;;;5025590;28;20502;-72
2022/04/16 05:39:51;;;;;;;18.70;10.77;;;8.50;99.90;;;;;;4987654;28;20520;-72
2022/04/16 05:42:16;;;;;;;20.27;12.63;;;8.40;99.90;;;;;;4993028;28;20501;-72
2022/04/16 05:44:42;;;;;;;17.75;11.85;;;8.50;99.90;;;;;;5008596;28;20153;-72
2022/04/16 05:47:07;;;;;;;19.35;11.88;;;8.70;99.90;;;;;;4992622;28;20092;-72
2022/04/16 05:49:33;;;;;;;19.73;12.73;;;8.70;99.90;;;;;;5008697;28;20038;-73
2022/04/16 05:51:59;;;;;;;19.63;12.60;;;8.40;99.90;;;;;;4992878;28;20034;-73
2022/04/16 05:54:25;;;;;;;18.67;11.70;;;8.40;99.90;;;;;;4992352;28;20042;-73
2022/04/16 05:56:51;;;;;;;18.05;11.13;;;8.40;99.90;;;;;;4983707;28;20038;-73
2022/04/16 05:59:18;;;;;;;18.52;11.48;;;8.50;99.90;;;;;;4992903;28;20089;-73
2022/04/16 06:01:43;;;;;;;21.17;11.32;;;8.40;99.90;;;;;;5025245;28;20042;-73
2022/04/16 06:04:09;;;;;;;19.38;12.05;;;8.50;99.90;;;;;;4991636;28;20454;-73
2022/04/16 06:06:35;;;;;;;17.85;11.32;;;8.40;99.90;;;;;;5017020;28;20042;-73
2022/04/16 06:09:00;;;;;;;19.10;9.82;;;8.60;99.90;;;;;;4993789;28;20426;-73
2022/04/16 06:11:28;;;;;;;16.90;10.27;;;8.90;99.90;;;;;;4961064;28;20479;-73
2022/04/16 06:13:53;;;;;;;15.95;9.70;;;8.70;99.90;;;;;;4989073;28;20030;-73
2022/04/16 06:16:19;;;;;;;21.63;12.30;;;8.90;99.90;;;;;;4992213;28;20506;-73
2022/04/16 06:18:44;;;;;;;15.35;7.07;;;8.60;99.90;;;;;;4992168;28;20042;-73
2022/04/16 06:21:10;;;;;;;15.38;8.98;;;8.80;99.90;;;;;;5024195;28;20062;-73
2022/04/16 06:23:36;;;;;;;15.73;9.50;;;8.90;99.90;;;;;;4978300;28;20055;-72
2022/04/16 06:26:01;;;;;;;17.58;11.05;;;8.90;99.90;;;;;;4971477;28;21527;-73
2022/04/16 06:28:27;;;;;;;19.13;11.05;;;8.90;99.90;;;;;;4973259;28;21553;-72
2022/04/16 06:30:52;;;;;;;17.98;11.32;;;8.80;99.90;;;;;;4999519;28;20073;-73
2022/04/16 06:33:18;;;;;;;16.15;10.23;;;8.80;99.90;;;;;;4989941;28;20035;-73
2022/04/16 06:35:43;;;;;;;18.45;11.52;;;8.80;99.90;;;;;;4983267;28;20049;-72
2022/04/16 06:38:09;;;;;;;19.45;10.88;;;9.00;99.90;;;;;;4982384;28;20050;-72
2022/04/16 06:40:34;;;;;;;16.92;10.07;;;9.00;99.90;;;;;;4984582;28;20046;-72
2022/04/16 06:43:00;;;;;;;19.40;10.35;;;9.10;99.90;;;;;;4998946;28;20049;-73
2022/04/16 06:45:26;;;;;;;17.33;10.25;;;9.20;99.90;;;;;;4968560;28;20037;-73
2022/04/16 06:47:52;;;;;;;17.08;9.77;;;9.20;99.90;;;;;;4983631;28;20042;-72
2022/04/16 06:50:17;;;;;;;19.38;10.18;;;9.20;99.90;;;;;;4982929;28;20042;-73
2022/04/16 06:52:43;;;;;;;15.90;9.38;;;9.20;99.90;;;;;;4998104;28;20038;-73
2022/04/16 06:55:08;;;;;;;14.90;9.57;;;9.40;99.90;;;;;;4960428;28;20046;-73
2022/04/16 06:57:34;;;;;;;17.20;9.52;;;9.40;99.90;;;;;;4977160;28;20045;-73
2022/04/16 07:00:00;;;;;;;15.80;9.80;;;9.50;99.90;;;;;;4967751;28;20050;-73
2022/04/16 07:02:25;;;;;;;15.70;9.15;;;9.60;99.90;;;;;;4981559;28;20069;-73
2022/04/16 07:04:51;;;;;;;14.77;8.82;;;9.70;99.90;;;;;;5014271;28;20047;-73
2022/04/16 07:07:16;;;;;;;16.10;9.38;;;9.60;99.90;;;;;;4969757;28;20077;-73
2022/04/16 07:09:42;;;;;;;15.18;8.65;;;9.70;99.90;;;;;;4986259;28;20121;-73
2022/04/16 07:12:09;;;;;;;12.85;7.88;;;9.80;99.90;;;;;;4967766;28;20158;-73
2022/04/16 07:14:36;;;;;;;14.00;7.57;;;9.70;99.90;;;;;;4951229;28;20057;-73
2022/04/16 07:17:01;;;;;;;13.32;7.60;;;9.80;99.90;;;;;;4968246;28;20061;-72
2022/04/16 07:19:31;;;;;;;13.10;7.32;;;9.80;99.90;;;;;;4973720;28;20494;-76
2022/04/16 07:21:57;;;;;;;12.10;6.30;;;9.90;99.90;;;;;;4978246;28;20802;-73
2022/04/16 07:24:24;;;;;;;12.85;6.55;;;9.80;99.90;;;;;;5002059;28;20213;-73
2022/04/16 07:26:54;;;;;;;12.60;5.60;;;9.80;99.90;;;;;;4960693;28;20050;-73
2022/04/16 07:29:26;;;;;;;12.02;6.03;;;10.00;99.90;;;;;;4972429;28;21509;-73
2022/04/16 07:31:52;;;;;;;11.87;6.20;;;10.00;99.90;;;;;;4959085;28;20045;-73
2022/04/16 07:34:18;;;;;;;11.30;5.45;;;10.10;99.90;;;;;;4979186;28;20301;-73
2022/04/16 07:36:45;;;;;;;8.30;4.40;;;10.10;99.90;;;;;;5001928;28;20619;-74
2022/04/16 07:39:12;;;;;;;11.02;5.75;;;10.20;99.90;;;;;;4987086;28;20042;-74
2022/04/16 07:41:38;;;;;;;9.57;5.43;;;10.30;99.90;;;;;;4974608;28;20486;-73
2022/04/16 07:44:04;;;;;;;11.15;6.10;;;10.40;99.90;;;;;;4977025;28;20077;-73
2022/04/16 07:46:31;;;;;;;8.18;4.00;;;10.30;99.90;;;;;;4957425;28;20046;-74
2022/04/16 07:48:57;;;;;;;10.75;5.47;;;10.30;99.90;;;;;;5003179;28;20732;-73
2022/04/16 07:51:23;;;;;;;11.93;5.97;;;10.40;99.90;;;;;;4971877;28;20051;-73
2022/04/16 07:53:49;;;;;;;14.05;8.35;;;10.30;99.90;;;;;;4958720;28;20061;-73
2022/04/16 07:56:14;;;;;;;11.43;7.00;;;10.30;99.90;;;;;;4974113;28;20054;-73
2022/04/16 07:58:40;;;;;;;13.55;7.95;;;10.30;99.90;;;;;;4989194;28;20046;-74
2022/04/16 08:01:06;;;;;;;14.15;8.00;;;10.30;99.90;;;;;;4970313;28;20403;-74
2022/04/16 08:03:32;;;;;;;14.80;8.80;;;10.50;99.90;;;;;;4985430;28;20046;-74
2022/04/16 08:05:58;;;;;;;11.63;7.00;;;10.40;99.90;;;;;;4971954;28;20039;-73
2022/04/16 08:08:23;;;;;;;11.25;6.35;;;10.40;99.90;;;;;;4991473;28;20490;-74
2022/04/16 08:10:53;;;;;;;13.93;6.70;;;10.50;99.90;;;;;;4977717;28;20486;-74
2022/04/16 08:13:22;;;;;;;11.93;6.97;;;10.50;99.90;;;;;;4974182;28;20030;-74
2022/04/16 08:15:48;;;;;;;11.23;5.80;;;10.60;99.90;;;;;;4977254;28;20038;-73
2022/04/16 08:18:14;;;;;;;9.88;5.63;;;10.70;99.90;;;;;;4993405;28;20517;-74
2022/04/16 08:20:40;;;;;;;10.43;5.88;;;10.80;99.90;;;;;;4994562;28;20460;-74
2022/04/16 08:23:06;;;;;;;10.45;5.38;;;10.50;99.90;;;;;;4993364;28;20141;-73
2022/04/16 08:28:03;;;;;;;10.77;6.75;;;10.80;99.90;;;;;;4993099;28;20141;-74
2022/04/16 08:30:29;;;;;;;10.10;5.30;;;10.90;99.90;;;;;;4987029;28;20126;-74
2022/04/16 08:32:55;;;;;;;11.52;5.45;;;11.10;99.90;;;;;;5013817;28;20061;-74
2022/04/16 08:35:21;;;;;;;10.70;5.38;;;11.20;99.90;;;;;;4992731;28;20042;-73
2022/04/16 08:37:49;;;;;;;12.05;5.40;;;11.20;99.90;;;;;;4992653;28;20053;-74
2022/04/16 08:40:15;;;;;;;11.32;5.40;;;11.20;99.90;;;;;;4976907;28;20502;-74
2022/04/16 08:42:44;;;;;;;10.40;5.20;;;11.30;99.90;;;;;;4992479;28;20042;-74
2022/04/16 08:45:10;;;;;;;11.25;5.28;;;11.40;99.90;;;;;;4993690;28;20088;-74
2022/04/16 08:47:38;;;;;;;9.65;4.68;;;11.20;97.00;;;;;;4971916;28;20053;-74
2022/04/16 08:50:06;;;;;;;9.07;4.80;;;11.00;99.90;;;;;;4993069;28;20045;-74
2022/04/16 08:52:34;;;;;;;8.82;4.38;;;11.30;99.90;;;;;;4977502;28;20053;-74
2022/04/16 08:55:03;;;;;;;8.05;3.88;;;11.40;99.90;;;;;;4975439;28;20038;-74
2022/04/16 08:57:29;;;;;;;8.95;4.55;;;11.80;98.60;;;;;;5009793;28;20046;-73
2022/04/16 08:59:55;;;;;;;8.35;3.90;;;11.80;98.40;;;;;;5024933;28;20046;-73
2022/04/16 09:02:23;;;;;;;10.05;4.20;;;11.70;96.80;;;;;;5026802;28;20046;-74
2022/04/16 09:05:00;;;;;;;8.48;3.50;;;11.90;99.30;;;;;;5017123;28;20060;-74
2022/04/16 09:07:26;;;;;;;6.97;2.80;;;12.10;96.90;;;;;;5023058;28;20502;-78
2022/04/16 09:09:52;;;;;;;6.25;2.80;;;12.10;95.80;;;;;;4993756;28;20081;-78
2022/04/16 09:12:18;;;;;;;7.25;3.03;;;12.10;90.70;;;;;;4992134;28;20045;-78
2022/04/16 09:14:45;;;;;;;7.32;3.08;;;12.20;90.60;;;;;;4977261;28;20192;-77
2022/04/16 09:17:16;;;;;;;6.95;2.92;;;12.10;92.20;;;;;;5024596;28;20043;-78
2022/04/16 09:19:42;;;;;;;8.65;2.83;;;11.90;74.10;;;;;;4982995;28;20502;-78
2022/04/16 09:22:08;;;;;;;7.88;2.88;;;12.00;90.10;;;;;;5008161;28;20058;-72
2022/04/16 09:24:54;;;;;;;6.82;3.00;;;12.10;93.20;;;;;;4974806;28;20062;-73
2022/04/16 09:27:20;;;;;;;6.88;2.75;;;12.30;94.40;;;;;;5017643;28;20054;-73
2022/04/16 09:29:46;;;;;;;5.90;2.70;;;12.30;93.20;;;;;;5000414;28;20050;-74
2022/04/16 09:32:22;;;;;;;6.13;2.95;;;12.40;91.40;;;;;;5009510;28;20404;-74
2022/04/16 09:34:47;;;;;;;5.70;2.42;;;12.40;94.50;;;;;;4991385;28;20553;-74
2022/04/16 09:37:13;;;;;;;6.35;2.47;;;12.30;73.90;;;;;;4993836;28;21225;-73
2022/04/16 09:39:40;;;;;;;3.72;2.15;;;12.40;89.00;;;;;;4977131;28;20049;-73
2022/04/16 09:42:05;;;;;;;5.15;2.03;;;12.60;91.90;;;;;;4976254;28;20080;-73
2022/04/16 09:44:31;;;;;;;7.07;2.20;;;12.80;84.50;;;;;;5025773;28;20066;-74
2022/04/16 09:46:57;;;;;;;5.35;2.30;;;12.70;65.80;;;;;;4990897;28;20034;-73
2022/04/16 09:49:24;;;;;;;4.65;2.10;;;12.70;83.80;;;;;;4976433;28;20046;-73
2022/04/16 09:51:50;;;;;;;7.65;2.10;;;13.00;73.00;;;;;;4993173;28;20426;-73
2022/04/16 09:54:17;;;;;;;2.97;1.50;;;12.90;79.40;;;;;;4993163;28;20042;-73
2022/04/16 09:56:48;;;;;;;2.53;1.50;;;12.90;71.00;;;;;;4992902;28;20042;-73
2022/04/16 09:59:15;;;;;;;3.08;1.30;;;13.10;64.40;;;;;;4993046;28;20041;-73
2022/04/16 10:01:47;;;;;;;3.03;1.33;;;13.10;66.00;;;;;;5025729;28;20057;-73
2022/04/16 10:04:15;;;;;;;2.88;1.08;;;13.30;64.40;;;;;;4976738;28;20556;-73
2022/04/16 10:06:41;;;;;;;4.15;1.35;;;13.30;62.70;;;;;;5025539;28;20046;-73
2022/04/16 10:15:05;;;;;;;5.28;1.90;;;13.30;60.50;;;;;;4992690;28;20115;-73
2022/04/16 10:17:39;;;;;;;4.10;1.45;;;13.40;60.20;;;;;;4976359;28;20499;-73
2022/04/16 10:20:15;;;;;;;3.33;1.33;;;13.40;57.60;;;;;;4992491;28;20506;-73
2022/04/16 10:22:51;;;;;;;3.05;1.30;;;13.10;54.50;;;;;;4976838;28;20394;-73
2022/04/16 10:25:29;;;;;;;2.72;1.23;;;13.30;58.40;;;;;;4976434;28;20046;-73
2022/04/16 10:28:02;;;;;;;4.32;1.38;;;13.40;58.50;;;;;;4992836;28;20387;-73
2022/04/16 10:30:49;;;;;;;3.08;1.33;;;13.50;63.70;;;;;;5008816;28;20554;-73
2022/04/16 10:33:22;;;;;;;2.95;1.25;;;13.70;59.70;;;;;;5025326;28;20538;-73
2022/04/16 10:35:54;;;;;;;3.30;1.20;;;13.70;59.80;;;;;;4976333;28;20081;-73
2022/04/16 10:38:38;;;;;;;3.63;1.35;;;13.70;60.50;;;;;;4976562;28;20499;-73
2022/04/16 10:41:11;;;;;;;1.90;1.08;;;13.70;58.40;;;;;;5025300;28;20039;-73
2022/04/16 10:43:37;;;;;;;3.90;1.30;;;13.70;55.00;;;;;;5025491;28;20092;-73
2022/04/16 10:46:04;;;;;;;2.90;1.20;;;13.80;58.00;;;;;;4976094;28;20494;-73
2022/04/16 10:48:41;;;;;;;2.75;1.08;;;13.90;55.40;;;;;;4992288;28;20081;-73
2022/04/16 10:51:08;;;;;;;2.22;1.17;;;13.90;55.20;;;;;;5025082;28;20034;-74
2022/04/16 10:53:35;;;;;;;3.20;1.20;;;13.90;56.10;;;;;;5025444;28;20476;-73
2022/04/16 10:56:14;;;;;;;2.72;1.10;;;13.90;55.70;;;;;;5025152;28;20034;-73
2022/04/16 10:58:45;;;;;;;2.55;1.00;;;13.90;53.10;;;;;;4978886;28;20046;-73
2022/04/16 11:01:13;;;;;;;2.87;1.00;;;13.90;53.20;;;;;;4980234;28;20057;-73
2022/04/16 11:03:48;;;;;;;1.85;0.90;;;13.90;54.60;;;;;;4979874;28;20038;-73
2022/04/16 11:06:14;;;;;;;1.90;0.85;;;14.00;55.80;;;;;;4996328;28;20078;-73
2022/04/16 11:08:41;;;;;;;2.20;0.93;;;14.10;55.00;;;;;;4995848;28;20498;-74
2022/04/16 11:11:08;;;;;;;3.65;1.20;;;14.10;51.80;;;;;;4979610;28;20513;-73
2022/04/16 11:13:36;;;;;;;2.30;0.75;;;14.20;53.20;;;;;;4996156;28;20360;-73
2022/04/16 11:16:02;;;;;;;3.08;1.15;;;14.20;52.40;;;;;;5028701;28;20121;-73
2022/04/16 11:18:42;;;;;;;2.85;1.10;;;14.00;53.20;;;;;;4979472;28;20081;-73
2022/04/16 11:21:29;;;;;;;2.08;0.98;;;14.00;54.20;;;;;;4979425;28;20065;-73
2022/04/16 11:23:54;;;;;;;2.53;1.20;;;14.20;54.10;;;;;;4995783;28;20513;-73
2022/04/16 11:34:42;;;;;;;3.17;1.50;;;14.30;53.40;;;;;;4995559;28;20054;-73
2022/04/16 11:37:08;;;;;;;4.45;1.52;;;14.30;52.30;;;;;;4979388;28;20038;-73
2022/04/16 11:39:34;;;;;;;1.13;0.80;;;14.20;53.00;;;;;;4979177;28;20038;-74
2022/04/16 11:42:04;;;;;;;2.28;1.10;;;14.10;51.10;;;;;;5028245;28;20097;-74
2022/04/16 11:44:38;;;;;;;2.35;1.20;;;14.10;48.60;;;;;;4979400;28;20042;-73
2022/04/16 11:47:26;;;;;;;3.30;1.13;;;14.10;51.10;;;;;;5028273;28;20483;-73
2022/04/16 11:49:54;;;;;;;5.88;2.25;;;14.00;49.90;;;;;;4995258;28;20074;-73
2022/04/16 11:52:31;;;;;;;4.65;2.50;;;14.00;47.50;;;;;;4995194;28;20045;-73
2022/04/16 11:55:05;;;;;;;2.50;1.15;;;14.00;48.30;;;;;;4979000;28;20088;-74
2022/04/16 11:57:32;;;;;;;3.45;1.30;;;14.00;50.80;;;;;;4978814;28;20037;-74
2022/04/16 11:59:59;;;;;;;1.75;1.00;;;14.00;49.10;;;;;;4995286;28;20490;-73
2022/04/16 12:02:31;;;;;;;3.05;1.50;;;14.00;48.10;;;;;;4994994;28;20053;-73
2022/04/16 12:05:07;;;;;;;3.22;1.40;;;14.10;48.20;;;;;;4979096;28;20057;-73
2022/04/16 12:07:32;;;;;;;4.50;1.60;;;14.10;48.20;;;;;;5027909;28;20426;-73
2022/04/16 12:10:02;;;;;;;2.58;1.15;;;14.10;49.70;;;;;;4994822;28;20085;-73
2022/04/16 12:12:28;;;;;;;3.45;1.10;;;14.00;49.90;;;;;;4978558;28;20045;-73
2022/04/16 12:14:54;;;;;;;2.00;1.23;;;14.10;49.10;;;;;;5027656;28;20046;-72
2022/04/16 12:17:29;;;;;;;4.45;1.40;;;14.10;47.60;;;;;;4978570;28;20080;-73
2022/04/16 12:20:10;;;;;;;3.53;1.25;;;14.10;49.80;;;;;;4978453;28;20054;-73
2022/04/16 12:22:52;;;;;;;3.95;1.73;;;14.10;51.50;;;;;;4994651;28;20568;-72
2022/04/16 12:25:23;;;;;;;4.78;1.00;;;14.30;50.10;;;;;;4994868;28;20442;-73
2022/04/16 12:27:49;;;;;;;3.42;1.17;;;14.20;49.40;;;;;;5011081;28;20434;-72
2022/04/16 12:30:18;;;;;;;1.98;1.00;;;14.40;50.00;;;;;;4978126;28;20042;-72
2022/04/16 12:32:58;;;;;;;2.08;0.90;;;14.30;48.80;;;;;;5027236;28;20511;-73
2022/04/16 12:35:24;;;;;;;1.48;0.90;;;14.40;49.20;;;;;;5010795;28;20037;-72
2022/04/16 12:37:51;;;;;;;1.35;0.98;;;14.40;48.00;;;;;;4994306;28;20086;-73
2022/04/16 12:40:18;;;;;;;1.13;0.90;;;14.40;47.70;;;;;;5010703;28;20046;-73
2022/04/16 12:42:43;;;;;;;4.68;1.20;;;14.40;47.50;;;;;;4994195;28;20487;-72
2022/04/16 12:45:09;;;;;;;3.25;1.02;;;14.40;49.20;;;;;;4994471;28;20042;-73
2022/04/16 12:47:35;;;;;;;3.80;1.23;;;14.40;49.30;;;;;;5027009;28;20042;-72
2022/04/16 12:50:00;;;;;;;2.53;1.10;;;14.40;49.30;;;;;;5026894;28;20038;-72
2022/04/16 12:52:26;;;;;;;2.97;1.20;;;14.40;49.90;;;;;;4994058;28;20125;-72
2022/04/16 12:54:51;;;;;;;4.57;1.30;;;14.40;49.10;;;;;;4994059;28;20038;-72
2022/04/16 12:57:17;;;;;;;3.33;1.20;;;14.50;49.20;;;;;;4977695;28;20038;-73
2022/04/16 12:59:43;;;;;;;2.67;1.10;;;14.50;49.00;;;;;;4994004;28;20499;-72
2022/04/16 13:02:08;;;;;;;4.20;1.10;;;14.50;49.60;;;;;;4993917;28;20128;-72
2022/04/16 13:04:34;;;;;;;4.43;1.10;;;14.60;50.30;;;;;;4993899;28;20113;-72
2022/04/16 13:07:00;;;;;;;2.72;1.20;;;14.60;49.70;;;;;;5026595;28;20046;-72
2022/04/16 13:09:25;;;;;;;1.75;1.00;;;14.70;47.50;;;;;;4993560;28;20042;-73